sensor_id;sensor_type;location;lat;lon;timestamp;pressure;altitude;pressure_sealevel;temperature;humidity
40730;BME280;26418;50.070;8.436;2024-02-21T00:01:04;100891.19;;;7.04;100.00
40730;BME280;26418;50.070;8.436;2024-02-21T00:03:33;100896.38;;;7.11;100.00
40730;BME280;26418;50.070;8.436;2024-02-21T00:05:58;100896.63;;;7.10;100.00
40730;BME280;26418;50.070;8.436;2024-02-21T00:08:24;100896.38;;;7.11;100.00
40730;BME280;26418;50.070;8.436;2024-02-21T00:10:50;100902.31;;;7.13;100.00
40730;BME280;26418;50.070;8.436;2024-02-21T00:13:15;100888.84;;;7.13;100.00
40730;BME280;26418;50.070;8.436;2024-02-21T00:15:44;100889.66;;;7.14;100.00
40730;BME280;26418;50.070;8.436;2024-02-21T00:18:09;100877.22;;;7.07;100.00
40730;BME280;26418;50.070;8.436;2024-02-21T00:20:36;100874.53;;;7.07;100.00
40730;BME280;26418;50.070;8.436;2024-02-21T00:23:02;100873.22;;;7.10;100.00
40730;BME280;26418;50.070;8.436;2024-02-21T00:25:27;100859.22;;;7.08;100.00
40730;BME280;26418;50.070;8.436;2024-02-21T00:27:56;100835.97;;;6.97;100.00
40730;BME280;26418;50.070;8.436;2024-02-21T00:30:25;100842.72;;;6.99;100.00
40730;BME280;26418;50.070;8.436;2024-02-21T00:32:50;100838.09;;;6.95;100.00
40730;BME280;26418;50.070;8.436;2024-02-21T00:35:16;100818.97;;;6.91;100.00
40730;BME280;26418;50.070;8.436;2024-02-21T00:37:41;100832.72;;;6.95;100.00
40730;BME280;26418;50.070;8.436;2024-02-21T00:40:07;100835.41;;;6.95;100.00
40730;BME280;26418;50.070;8.436;2024-02-21T00:42:36;100817.88;;;6.87;100.00
40730;BME280;26418;50.070;8.436;2024-02-21T00:45:01;100813.28;;;6.87;100.00
40730;BME280;26418;50.070;8.436;2024-02-21T00:47:27;100809.84;;;6.92;100.00
40730;BME280;26418;50.070;8.436;2024-02-21T00:49:52;100797.72;;;6.89;100.00
40730;BME280;26418;50.070;8.436;2024-02-21T00:52:21;100793.09;;;6.85;100.00
40730;BME280;26418;50.070;8.436;2024-02-21T00:54:47;100803.56;;;6.81;100.00
40730;BME280;26418;50.070;8.436;2024-02-21T00:57:14;100809.03;;;6.91;100.00
40730;BME280;26418;50.070;8.436;2024-02-21T00:59:43;100812.53;;;6.92;100.00
40730;BME280;26418;50.070;8.436;2024-02-21T01:02:11;100804.16;;;6.88;100.00
40730;BME280;26418;50.070;8.436;2024-02-21T01:04:37;100807.94;;;6.92;100.00
40730;BME280;26418;50.070;8.436;2024-02-21T01:07:05;100825.19;;;6.91;100.00
40730;BME280;26418;50.070;8.436;2024-02-21T01:09:31;100816.59;;;6.95;100.00
40730;BME280;26418;50.070;8.436;2024-02-21T01:11:59;100824.19;;;7.03;100.00
40730;BME280;26418;50.070;8.436;2024-02-21T01:14:25;100818.50;;;6.99;100.00
40730;BME280;26418;50.070;8.436;2024-02-21T01:16:51;100815.31;;;7.02;100.00
40730;BME280;26418;50.070;8.436;2024-02-21T01:19:16;100816.66;;;7.00;100.00
40730;BME280;26418;50.070;8.436;2024-02-21T01:21:48;100830.63;;;7.02;100.00
40730;BME280;26418;50.070;8.436;2024-02-21T01:24:14;100828.47;;;6.99;100.00
40730;BME280;26418;50.070;8.436;2024-02-21T01:26:40;100814.63;;;6.85;100.00
40730;BME280;26418;50.070;8.436;2024-02-21T01:29:08;100816.84;;;6.93;100.00
40730;BME280;26418;50.070;8.436;2024-02-21T01:31:34;100813.84;;;6.89;100.00
40730;BME280;26418;50.070;8.436;2024-02-21T01:33:59;100806.06;;;6.88;100.00
40730;BME280;26418;50.070;8.436;2024-02-21T01:36:25;100818.63;;;6.82;100.00
40730;BME280;26418;50.070;8.436;2024-02-21T01:38:50;100817.03;;;6.86;100.00
40730;BME280;26418;50.070;8.436;2024-02-21T01:41:19;100799.50;;;6.79;100.00
40730;BME280;26418;50.070;8.436;2024-02-21T01:43:44;100810.78;;;6.81;100.00
40730;BME280;26418;50.070;8.436;2024-02-21T01:46:10;100788.66;;;6.73;100.00
40730;BME280;26418;50.070;8.436;2024-02-21T01:48:36;100795.97;;;6.78;100.00
40730;BME280;26418;50.070;8.436;2024-02-21T01:51:04;100786.81;;;6.74;100.00
40730;BME280;26418;50.070;8.436;2024-02-21T01:53:32;100780.88;;;6.72;100.00
40730;BME280;26418;50.070;8.436;2024-02-21T01:56:03;100778.75;;;6.74;100.00
40730;BME280;26418;50.070;8.436;2024-02-21T01:58:36;100779.53;;;6.74;100.00
40730;BME280;26418;50.070;8.436;2024-02-21T02:01:06;100770.91;;;6.72;100.00
40730;BME280;26418;50.070;8.436;2024-02-21T02:03:32;100769.91;;;6.79;100.00
40730;BME280;26418;50.070;8.436;2024-02-21T02:05:57;100762.06;;;6.72;100.00
40730;BME280;26418;50.070;8.436;2024-02-21T02:08:23;100769.63;;;6.75;100.00
40730;BME280;26418;50.070;8.436;2024-02-21T02:10:49;100754.94;;;6.60;100.00
40730;BME280;26418;50.070;8.436;2024-02-21T02:13:15;100781.19;;;6.75;100.00
40730;BME280;26418;50.070;8.436;2024-02-21T02:15:42;100771.19;;;6.71;100.00
40730;BME280;26418;50.070;8.436;2024-02-21T02:18:09;100765.22;;;6.69;100.00
40730;BME280;26418;50.070;8.436;2024-02-21T02:20:35;100762.50;;;6.64;100.00
40730;BME280;26418;50.070;8.436;2024-02-21T02:23:30;100763.00;;;6.60;100.00
40730;BME280;26418;50.070;8.436;2024-02-21T02:25:56;100750.31;;;6.56;100.00
40730;BME280;26418;50.070;8.436;2024-02-21T02:28:25;100744.03;;;6.45;100.00
40730;BME280;26418;50.070;8.436;2024-02-21T02:30:50;100754.50;;;6.47;100.00
40730;BME280;26418;50.070;8.436;2024-02-21T02:33:19;100755.94;;;6.54;100.00
40730;BME280;26418;50.070;8.436;2024-02-21T02:35:45;100758.06;;;6.52;100.00
40730;BME280;26418;50.070;8.436;2024-02-21T02:38:10;100745.16;;;6.49;100.00
40730;BME280;26418;50.070;8.436;2024-02-21T02:40:40;100738.66;;;6.45;100.00
40730;BME280;26418;50.070;8.436;2024-02-21T02:43:06;100725.19;;;6.40;100.00
40730;BME280;26418;50.070;8.436;2024-02-21T02:45:32;100726.94;;;6.29;100.00
40730;BME280;26418;50.070;8.436;2024-02-21T02:48:02;100728.81;;;6.28;100.00
40730;BME280;26418;50.070;8.436;2024-02-21T02:50:27;100722.56;;;6.23;100.00
40730;BME280;26418;50.070;8.436;2024-02-21T02:52:54;100726.56;;;6.20;100.00
40730;BME280;26418;50.070;8.436;2024-02-21T02:55:20;100730.31;;;6.19;100.00
40730;BME280;26418;50.070;8.436;2024-02-21T02:57:46;100718.94;;;6.12;100.00
40730;BME280;26418;50.070;8.436;2024-02-21T03:00:13;100723.31;;;6.18;100.00
40730;BME280;26418;50.070;8.436;2024-02-21T03:02:40;100733.88;;;6.25;100.00
40730;BME280;26418;50.070;8.436;2024-02-21T03:05:13;100715.06;;;6.25;100.00
40730;BME280;26418;50.070;8.436;2024-02-21T03:07:40;100724.00;;;6.31;100.00
40730;BME280;26418;50.070;8.436;2024-02-21T03:10:09;100714.63;;;6.33;100.00
40730;BME280;26418;50.070;8.436;2024-02-21T03:12:35;100708.19;;;6.34;100.00
40730;BME280;26418;50.070;8.436;2024-02-21T03:15:01;100699.31;;;6.34;100.00
40730;BME280;26418;50.070;8.436;2024-02-21T03:17:26;100703.97;;;6.43;100.00
40730;BME280;26418;50.070;8.436;2024-02-21T03:19:53;100685.97;;;6.44;100.00
40730;BME280;26418;50.070;8.436;2024-02-21T03:22:19;100679.03;;;6.48;100.00
40730;BME280;26418;50.070;8.436;2024-02-21T03:24:44;100681.78;;;6.53;100.00
40730;BME280;26418;50.070;8.436;2024-02-21T03:27:10;100680.72;;;6.54;100.00
40730;BME280;26418;50.070;8.436;2024-02-21T03:29:36;100681.84;;;6.58;100.00
40730;BME280;26418;50.070;8.436;2024-02-21T03:32:01;100677.81;;;6.61;100.00
40730;BME280;26418;50.070;8.436;2024-02-21T03:34:27;100671.13;;;6.64;100.00
40730;BME280;26418;50.070;8.436;2024-02-21T03:36:52;100660.38;;;6.64;100.00
40730;BME280;26418;50.070;8.436;2024-02-21T03:39:24;100656.63;;;6.65;100.00
40730;BME280;26418;50.070;8.436;2024-02-21T03:41:49;100656.63;;;6.65;100.00
40730;BME280;26418;50.070;8.436;2024-02-21T03:44:18;100657.19;;;6.67;100.00
40730;BME280;26418;50.070;8.436;2024-02-21T03:46:43;100666.53;;;6.64;100.00
40730;BME280;26418;50.070;8.436;2024-02-21T03:49:09;100663.63;;;6.66;100.00
40730;BME280;26418;50.070;8.436;2024-02-21T03:51:37;100671.69;;;6.66;100.00
40730;BME280;26418;50.070;8.436;2024-02-21T03:54:12;100678.16;;;6.70;100.00
40730;BME280;26418;50.070;8.436;2024-02-21T03:56:38;100659.88;;;6.67;100.00
40730;BME280;26418;50.070;8.436;2024-02-21T03:59:07;100665.00;;;6.73;100.00
40730;BME280;26418;50.070;8.436;2024-02-21T04:01:36;100675.75;;;6.73;100.00
40730;BME280;26418;50.070;8.436;2024-02-21T04:04:04;100684.38;;;6.75;100.00
40730;BME280;26418;50.070;8.436;2024-02-21T04:06:32;100663.16;;;6.74;100.00
40730;BME280;26418;50.070;8.436;2024-02-21T04:08:58;100662.84;;;6.70;100.00
40730;BME280;26418;50.070;8.436;2024-02-21T04:11:24;100667.66;;;6.68;100.00
40730;BME280;26418;50.070;8.436;2024-02-21T04:13:49;100676.03;;;6.72;100.00
40730;BME280;26418;50.070;8.436;2024-02-21T04:16:17;100669.59;;;6.73;100.00
40730;BME280;26418;50.070;8.436;2024-02-21T04:18:43;100642.13;;;6.66;100.00
40730;BME280;26418;50.070;8.436;2024-02-21T04:21:09;100646.47;;;6.72;100.00
40730;BME280;26418;50.070;8.436;2024-02-21T04:23:35;100657.47;;;6.70;100.00
40730;BME280;26418;50.070;8.436;2024-02-21T04:26:01;100654.78;;;6.70;100.00
40730;BME280;26418;50.070;8.436;2024-02-21T04:28:32;100638.91;;;6.69;100.00
40730;BME280;26418;50.070;8.436;2024-02-21T04:31:01;100639.44;;;6.66;100.00
40730;BME280;26418;50.070;8.436;2024-02-21T04:33:26;100629.19;;;6.63;100.00
40730;BME280;26418;50.070;8.436;2024-02-21T04:35:55;100618.13;;;6.59;100.00
40730;BME280;26418;50.070;8.436;2024-02-21T04:38:21;100610.56;;;6.56;100.00
40730;BME280;26418;50.070;8.436;2024-02-21T04:40:46;100618.34;;;6.52;100.00
40730;BME280;26418;50.070;8.436;2024-02-21T04:43:12;100605.13;;;6.45;100.00
40730;BME280;26418;50.070;8.436;2024-02-21T04:45:38;100602.69;;;6.44;100.00
40730;BME280;26418;50.070;8.436;2024-02-21T04:48:09;100598.38;;;6.43;100.00
40730;BME280;26418;50.070;8.436;2024-02-21T04:50:41;100608.06;;;6.44;100.00
40730;BME280;26418;50.070;8.436;2024-02-21T04:53:06;100601.59;;;6.40;100.00
40730;BME280;26418;50.070;8.436;2024-02-21T04:55:41;100588.09;;;6.35;100.00
40730;BME280;26418;50.070;8.436;2024-02-21T04:58:07;100582.72;;;6.35;100.00
40730;BME280;26418;50.070;8.436;2024-02-21T05:00:36;100583.53;;;6.35;100.00
40730;BME280;26418;50.070;8.436;2024-02-21T05:03:01;100586.50;;;6.34;100.00
40730;BME280;26418;50.070;8.436;2024-02-21T05:05:30;100577.88;;;6.32;100.00
40730;BME280;26418;50.070;8.436;2024-02-21T05:07:55;100574.31;;;6.26;100.00
40730;BME280;26418;50.070;8.436;2024-02-21T05:10:21;100594.50;;;6.28;100.00
40730;BME280;26418;50.070;8.436;2024-02-21T05:12:46;100594.97;;;6.25;100.00
40730;BME280;26418;50.070;8.436;2024-02-21T05:15:12;100587.47;;;6.22;100.00
40730;BME280;26418;50.070;8.436;2024-02-21T05:17:44;100586.09;;;6.20;100.00
40730;BME280;26418;50.070;8.436;2024-02-21T05:20:12;100585.22;;;6.14;100.00
40730;BME280;26418;50.070;8.436;2024-02-21T05:22:38;100583.56;;;6.08;100.00
40730;BME280;26418;50.070;8.436;2024-02-21T05:25:04;100597.28;;;6.11;100.00
40730;BME280;26418;50.070;8.436;2024-02-21T05:27:35;100621.25;;;6.18;100.00
40730;BME280;26418;50.070;8.436;2024-02-21T05:30:03;100614.00;;;6.19;100.00
40730;BME280;26418;50.070;8.436;2024-02-21T05:32:28;100612.38;;;6.18;100.00
40730;BME280;26418;50.070;8.436;2024-02-21T05:34:55;100602.81;;;6.27;100.00
40730;BME280;26418;50.070;8.436;2024-02-21T05:37:23;100608.69;;;6.24;100.00
40730;BME280;26418;50.070;8.436;2024-02-21T05:39:49;100617.59;;;6.29;100.00
40730;BME280;26418;50.070;8.436;2024-02-21T05:42:14;100599.84;;;6.28;100.00
40730;BME280;26418;50.070;8.436;2024-02-21T05:44:43;100601.53;;;6.35;100.00
40730;BME280;26418;50.070;8.436;2024-02-21T05:47:14;100599.41;;;6.37;100.00
40730;BME280;26418;50.070;8.436;2024-02-21T05:49:40;100587.03;;;6.36;100.00
40730;BME280;26418;50.070;8.436;2024-02-21T05:52:09;100580.59;;;6.37;100.00
40730;BME280;26418;50.070;8.436;2024-02-21T05:54:37;100573.59;;;6.36;100.00
40730;BME280;26418;50.070;8.436;2024-02-21T05:57:04;100565.50;;;6.31;100.00
40730;BME280;26418;50.070;8.436;2024-02-21T05:59:33;100565.22;;;6.32;100.00
40730;BME280;26418;50.070;8.436;2024-02-21T06:01:59;100574.13;;;6.33;100.00
40730;BME280;26418;50.070;8.436;2024-02-21T06:04:24;100545.25;;;6.18;100.00
40730;BME280;26418;50.070;8.436;2024-02-21T06:06:50;100560.63;;;6.27;100.00
40730;BME280;26418;50.070;8.436;2024-02-21T06:09:16;100552.28;;;6.24;100.00
40730;BME280;26418;50.070;8.436;2024-02-21T06:11:41;100554.09;;;6.18;100.00
40730;BME280;26418;50.070;8.436;2024-02-21T06:14:10;100555.94;;;6.12;100.00
40730;BME280;26418;50.070;8.436;2024-02-21T06:16:36;100545.66;;;6.04;100.00
40730;BME280;26418;50.070;8.436;2024-02-21T06:19:01;100564.00;;;6.12;100.00
40730;BME280;26418;50.070;8.436;2024-02-21T06:21:31;100559.44;;;6.13;100.00
40730;BME280;26418;50.070;8.436;2024-02-21T06:23:56;100557.25;;;6.10;100.00
40730;BME280;26418;50.070;8.436;2024-02-21T06:26:22;100558.56;;;6.07;100.00
40730;BME280;26418;50.070;8.436;2024-02-21T06:28:47;100558.75;;;6.01;100.00
40730;BME280;26418;50.070;8.436;2024-02-21T06:31:16;100567.91;;;6.00;100.00
40730;BME280;26418;50.070;8.436;2024-02-21T06:33:41;100540.41;;;5.92;100.00
40730;BME280;26418;50.070;8.436;2024-02-21T06:36:10;100540.94;;;5.89;100.00
40730;BME280;26418;50.070;8.436;2024-02-21T06:38:35;100539.75;;;5.80;100.00
40730;BME280;26418;50.070;8.436;2024-02-21T06:41:01;100546.50;;;5.82;100.00
40730;BME280;26418;50.070;8.436;2024-02-21T06:43:28;100540.56;;;5.80;100.00
40730;BME280;26418;50.070;8.436;2024-02-21T06:45:54;100530.94;;;5.85;100.00
40730;BME280;26418;50.070;8.436;2024-02-21T06:48:20;100527.19;;;5.86;100.00
40730;BME280;26418;50.070;8.436;2024-02-21T06:50:49;100532.03;;;5.89;100.00
40730;BME280;26418;50.070;8.436;2024-02-21T06:53:14;100536.34;;;5.90;100.00
40730;BME280;26418;50.070;8.436;2024-02-21T06:55:40;100535.78;;;5.88;100.00
40730;BME280;26418;50.070;8.436;2024-02-21T06:58:05;100530.97;;;5.90;100.00
40730;BME280;26418;50.070;8.436;2024-02-21T07:00:33;100545.53;;;5.94;100.00
40730;BME280;26418;50.070;8.436;2024-02-21T07:02:59;100546.63;;;5.98;100.00
40730;BME280;26418;50.070;8.436;2024-02-21T07:05:24;100542.66;;;6.01;100.00
40730;BME280;26418;50.070;8.436;2024-02-21T07:07:50;100531.97;;;6.06;100.00
40730;BME280;26418;50.070;8.436;2024-02-21T07:10:15;100539.84;;;6.12;100.00
40730;BME280;26418;50.070;8.436;2024-02-21T07:12:44;100538.22;;;6.11;100.00
40730;BME280;26418;50.070;8.436;2024-02-21T07:15:10;100549.59;;;6.24;100.00
40730;BME280;26418;50.070;8.436;2024-02-21T07:17:35;100532.41;;;6.25;100.00
40730;BME280;26418;50.070;8.436;2024-02-21T07:20:01;100535.38;;;6.28;100.00
40730;BME280;26418;50.070;8.436;2024-02-21T07:22:26;100539.50;;;6.36;100.00
40730;BME280;26418;50.070;8.436;2024-02-21T07:24:52;100537.34;;;6.38;100.00
40730;BME280;26418;50.070;8.436;2024-02-21T07:27:18;100533.84;;;6.38;100.00
40730;BME280;26418;50.070;8.436;2024-02-21T07:29:46;100540.94;;;6.49;100.00
40730;BME280;26418;50.070;8.436;2024-02-21T07:32:14;100532.59;;;6.51;100.00
40730;BME280;26418;50.070;8.436;2024-02-21T07:34:39;100540.19;;;6.59;100.00
40730;BME280;26418;50.070;8.436;2024-02-21T07:37:07;100529.47;;;6.64;100.00
40730;BME280;26418;50.070;8.436;2024-02-21T07:39:36;100537.59;;;6.74;100.00
40730;BME280;26418;50.070;8.436;2024-02-21T07:42:08;100531.94;;;6.76;99.86
40730;BME280;26418;50.070;8.436;2024-02-21T07:44:33;100536.59;;;6.86;99.64
40730;BME280;26418;50.070;8.436;2024-02-21T07:46:59;100523.72;;;6.93;98.49
40730;BME280;26418;50.070;8.436;2024-02-21T07:49:25;100521.63;;;7.00;98.08
40730;BME280;26418;50.070;8.436;2024-02-21T07:51:50;100525.16;;;7.11;96.64
40730;BME280;26418;50.070;8.436;2024-02-21T07:54:23;100526.28;;;7.15;95.68
40730;BME280;26418;50.070;8.436;2024-02-21T07:56:49;100521.44;;;7.22;98.08
40730;BME280;26418;50.070;8.436;2024-02-21T07:59:14;100527.19;;;7.47;100.00
40730;BME280;26418;50.070;8.436;2024-02-21T08:01:40;100518.09;;;7.68;100.00
40730;BME280;26418;50.070;8.436;2024-02-21T08:04:05;100514.88;;;7.82;100.00
40730;BME280;26418;50.070;8.436;2024-02-21T08:06:31;100517.88;;;7.96;100.00
40730;BME280;26418;50.070;8.436;2024-02-21T08:08:57;100508.69;;;8.02;100.00
40730;BME280;26418;50.070;8.436;2024-02-21T08:11:22;100506.03;;;8.12;99.18
40730;BME280;26418;50.070;8.436;2024-02-21T08:13:48;100495.25;;;8.07;95.28
40730;BME280;26418;50.070;8.436;2024-02-21T08:16:16;100492.00;;;8.21;97.23
40730;BME280;26418;50.070;8.436;2024-02-21T08:18:44;100499.03;;;8.22;94.22
40730;BME280;26418;50.070;8.436;2024-02-21T08:21:09;100497.69;;;8.29;95.91
40730;BME280;26418;50.070;8.436;2024-02-21T08:23:35;100489.06;;;8.27;91.32
40730;BME280;26418;50.070;8.436;2024-02-21T08:26:03;100486.06;;;8.44;95.51
40730;BME280;26418;50.070;8.436;2024-02-21T08:28:29;100493.34;;;8.70;96.78
40730;BME280;26418;50.070;8.436;2024-02-21T08:30:54;100489.16;;;9.03;97.54
40730;BME280;26418;50.070;8.436;2024-02-21T08:33:20;100471.53;;;9.26;91.80
40730;BME280;26418;50.070;8.436;2024-02-21T08:35:50;100472.22;;;9.48;88.47
40730;BME280;26418;50.070;8.436;2024-02-21T08:38:15;100472.63;;;9.70;87.60
40730;BME280;26418;50.070;8.436;2024-02-21T08:40:44;100467.41;;;9.84;84.08
40730;BME280;26418;50.070;8.436;2024-02-21T08:43:09;100457.84;;;9.97;83.75
40730;BME280;26418;50.070;8.436;2024-02-21T08:45:35;100478.00;;;10.10;79.00
40730;BME280;26418;50.070;8.436;2024-02-21T08:48:00;100464.91;;;9.93;77.19
40730;BME280;26418;50.070;8.436;2024-02-21T08:50:26;100466.53;;;9.94;78.62
40730;BME280;26418;50.070;8.436;2024-02-21T08:52:53;100460.53;;;10.02;82.61
40730;BME280;26418;50.070;8.436;2024-02-21T08:55:22;100458.00;;;10.11;80.79
40730;BME280;26418;50.070;8.436;2024-02-21T08:57:47;100461.31;;;10.03;77.39
40730;BME280;26418;50.070;8.436;2024-02-21T09:00:13;100461.06;;;9.99;82.23
40730;BME280;26418;50.070;8.436;2024-02-21T09:02:40;100445.88;;;10.09;82.80
40730;BME280;26418;50.070;8.436;2024-02-21T09:05:08;100456.44;;;10.34;81.08
40730;BME280;26418;50.070;8.436;2024-02-21T09:07:34;100447.00;;;10.61;81.98
40730;BME280;26418;50.070;8.436;2024-02-21T09:09:59;100445.09;;;10.86;79.84
40730;BME280;26418;50.070;8.436;2024-02-21T09:12:26;100441.91;;;11.03;76.36
40730;BME280;26418;50.070;8.436;2024-02-21T09:14:54;100439.50;;;11.01;73.38
40730;BME280;26418;50.070;8.436;2024-02-21T09:17:20;100436.66;;;10.68;70.31
40730;BME280;26418;50.070;8.436;2024-02-21T09:19:52;100433.59;;;10.51;73.32
40730;BME280;26418;50.070;8.436;2024-02-21T09:22:17;100431.97;;;10.50;75.64
40730;BME280;26418;50.070;8.436;2024-02-21T09:24:43;100439.09;;;10.41;72.54
40730;BME280;26418;50.070;8.436;2024-02-21T09:27:08;100428.13;;;10.27;71.99
40730;BME280;26418;50.070;8.436;2024-02-21T09:29:37;100416.78;;;9.95;72.68
40730;BME280;26418;50.070;8.436;2024-02-21T09:32:12;100412.00;;;9.87;74.22
40730;BME280;26418;50.070;8.436;2024-02-21T09:34:37;100416.59;;;9.86;73.55
40730;BME280;26418;50.070;8.436;2024-02-21T09:40:25;100420.59;;;9.94;74.17
40730;BME280;26418;50.070;8.436;2024-02-21T09:43:02;100412.13;;;10.01;74.09
40730;BME280;26418;50.070;8.436;2024-02-21T09:45:33;100397.38;;;9.93;72.83
40730;BME280;26418;50.070;8.436;2024-02-21T09:50:40;100411.88;;;10.02;72.94
40730;BME280;26418;50.070;8.436;2024-02-21T09:53:12;100402.09;;;10.06;72.31
40730;BME280;26418;50.070;8.436;2024-02-21T09:55:43;100405.50;;;10.17;72.42
40730;BME280;26418;50.070;8.436;2024-02-21T09:58:12;100402.06;;;10.36;72.99
40730;BME280;26418;50.070;8.436;2024-02-21T10:00:38;100387.53;;;10.32;72.78
40730;BME280;26418;50.070;8.436;2024-02-21T10:03:04;100393.88;;;10.46;72.59
40730;BME280;26418;50.070;8.436;2024-02-21T10:05:36;100387.66;;;10.46;71.76
40730;BME280;26418;50.070;8.436;2024-02-21T10:08:03;100396.28;;;10.48;71.38
40730;BME280;26418;50.070;8.436;2024-02-21T10:10:29;100380.41;;;10.41;71.13
40730;BME280;26418;50.070;8.436;2024-02-21T10:12:55;100383.63;;;10.43;70.42
40730;BME280;26418;50.070;8.436;2024-02-21T10:15:22;100383.81;;;10.52;70.24
40730;BME280;26418;50.070;8.436;2024-02-21T10:17:48;100372.41;;;10.55;70.57
40730;BME280;26418;50.070;8.436;2024-02-21T10:20:13;100369.66;;;10.60;71.45
40730;BME280;26418;50.070;8.436;2024-02-21T10:22:40;100370.03;;;10.73;70.79
40730;BME280;26418;50.070;8.436;2024-02-21T10:25:09;100368.53;;;10.85;70.79
40730;BME280;26418;50.070;8.436;2024-02-21T10:27:39;100363.31;;;10.70;69.86
40730;BME280;26418;50.070;8.436;2024-02-21T10:30:13;100366.47;;;10.77;70.22
40730;BME280;26418;50.070;8.436;2024-02-21T10:32:55;100355.81;;;10.86;69.31
40730;BME280;26418;50.070;8.436;2024-02-21T10:35:36;100341.03;;;10.78;69.48
40730;BME280;26418;50.070;8.436;2024-02-21T10:38:02;100355.44;;;10.93;70.19
40730;BME280;26418;50.070;8.436;2024-02-21T10:40:30;100334.31;;;10.95;69.17
40730;BME280;26418;50.070;8.436;2024-02-21T10:43:01;100340.72;;;10.80;69.46
40730;BME280;26418;50.070;8.436;2024-02-21T10:45:30;100340.22;;;10.78;69.28
40730;BME280;26418;50.070;8.436;2024-02-21T10:48:22;100319.06;;;10.80;69.16
40730;BME280;26418;50.070;8.436;2024-02-21T10:51:02;100329.91;;;10.80;68.92
40730;BME280;26418;50.070;8.436;2024-02-21T10:53:45;100330.94;;;10.84;69.35
40730;BME280;26418;50.070;8.436;2024-02-21T10:56:22;100331.06;;;10.93;69.91
40730;BME280;26418;50.070;8.436;2024-02-21T10:58:52;100330.94;;;11.03;69.40
40730;BME280;26418;50.070;8.436;2024-02-21T11:01:18;100321.28;;;11.16;69.40
40730;BME280;26418;50.070;8.436;2024-02-21T11:03:46;100316.16;;;11.14;68.16
40730;BME280;26418;50.070;8.436;2024-02-21T11:06:13;100300.72;;;11.15;68.21
40730;BME280;26418;50.070;8.436;2024-02-21T11:08:40;100303.50;;;11.10;68.19
40730;BME280;26418;50.070;8.436;2024-02-21T11:11:06;100283.31;;;11.02;67.77
40730;BME280;26418;50.070;8.436;2024-02-21T11:13:32;100294.09;;;11.21;68.32
40730;BME280;26418;50.070;8.436;2024-02-21T11:16:10;100279.22;;;11.38;68.34
40730;BME280;26418;50.070;8.436;2024-02-21T11:18:39;100283.47;;;11.44;67.31
40730;BME280;26418;50.070;8.436;2024-02-21T11:21:05;100276.06;;;11.50;66.90
40730;BME280;26418;50.070;8.436;2024-02-21T11:23:34;100270.41;;;11.46;66.30
40730;BME280;26418;50.070;8.436;2024-02-21T11:26:18;100272.34;;;11.45;66.81
40730;BME280;26418;50.070;8.436;2024-02-21T11:28:44;100266.63;;;11.61;66.62
40730;BME280;26418;50.070;8.436;2024-02-21T11:31:16;100255.53;;;11.62;66.36
40730;BME280;26418;50.070;8.436;2024-02-21T11:33:42;100252.72;;;11.68;66.48
40730;BME280;26418;50.070;8.436;2024-02-21T11:36:23;100248.47;;;11.75;66.86
40730;BME280;26418;50.070;8.436;2024-02-21T11:38:50;100242.19;;;11.66;66.06
40730;BME280;26418;50.070;8.436;2024-02-21T11:41:19;100231.00;;;11.54;66.77
40730;BME280;26418;50.070;8.436;2024-02-21T11:43:50;100228.91;;;11.51;67.68
40730;BME280;26418;50.070;8.436;2024-02-21T11:46:16;100226.91;;;11.56;67.72
40730;BME280;26418;50.070;8.436;2024-02-21T11:48:45;100223.19;;;11.52;68.01
40730;BME280;26418;50.070;8.436;2024-02-21T11:51:24;100228.47;;;11.43;67.41
40730;BME280;26418;50.070;8.436;2024-02-21T11:53:51;100209.84;;;11.42;67.75
40730;BME280;26418;50.070;8.436;2024-02-21T11:56:18;100209.63;;;11.38;67.62
40730;BME280;26418;50.070;8.436;2024-02-21T11:58:45;100197.78;;;11.34;68.21
40730;BME280;26418;50.070;8.436;2024-02-21T12:01:11;100193.00;;;11.45;68.93
40730;BME280;26418;50.070;8.436;2024-02-21T12:03:39;100198.63;;;11.62;68.28
40730;BME280;26418;50.070;8.436;2024-02-21T12:06:07;100190.72;;;11.66;66.25
40730;BME280;26418;50.070;8.436;2024-02-21T12:08:45;100173.56;;;11.71;66.03
40730;BME280;26418;50.070;8.436;2024-02-21T12:11:19;100163.09;;;11.78;65.69
40730;BME280;26418;50.070;8.436;2024-02-21T12:14:02;100167.19;;;11.89;65.73
40730;BME280;26418;50.070;8.436;2024-02-21T12:16:38;100157.03;;;11.95;65.43
40730;BME280;26418;50.070;8.436;2024-02-21T12:19:07;100154.84;;;11.83;65.22
40730;BME280;26418;50.070;8.436;2024-02-21T12:21:34;100126.78;;;11.65;65.88
40730;BME280;26418;50.070;8.436;2024-02-21T12:24:17;100138.59;;;11.83;66.36
40730;BME280;26418;50.070;8.436;2024-02-21T12:26:50;100138.22;;;12.04;66.03
40730;BME280;26418;50.070;8.436;2024-02-21T12:29:15;100108.84;;;12.06;65.28
40730;BME280;26418;50.070;8.436;2024-02-21T12:31:41;100118.50;;;12.12;64.49
40730;BME280;26418;50.070;8.436;2024-02-21T12:34:07;100120.34;;;12.03;64.68
40730;BME280;26418;50.070;8.436;2024-02-21T12:36:40;100118.09;;;12.05;63.83
40730;BME280;26418;50.070;8.436;2024-02-21T12:39:07;100099.34;;;11.94;63.62
40730;BME280;26418;50.070;8.436;2024-02-21T12:41:34;100108.28;;;11.81;64.37
40730;BME280;26418;50.070;8.436;2024-02-21T12:44:13;100099.69;;;11.65;64.62
40730;BME280;26418;50.070;8.436;2024-02-21T12:46:38;100093.19;;;11.52;64.60
40730;BME280;26418;50.070;8.436;2024-02-21T12:49:05;100095.97;;;11.61;65.35
40730;BME280;26418;50.070;8.436;2024-02-21T12:51:35;100100.09;;;11.58;65.32
40730;BME280;26418;50.070;8.436;2024-02-21T12:54:04;100106.31;;;11.59;65.82
40730;BME280;26418;50.070;8.436;2024-02-21T12:56:30;100106.03;;;11.60;66.42
40730;BME280;26418;50.070;8.436;2024-02-21T12:58:57;100097.06;;;11.60;66.49